Terminal Aerodrome Forecast
Issued by NWS

Home | Current Version | Previous Version | Text Only | Print | Product List | Glossary On
Versions: 1 2 3 4 5 6 7 8 9 10 11 12 13 14 15 16 17 18 19 20 21 22
000
FTUS41 KPHI 210529
TAFPNE
TAF
KPNE 210529Z 2106/2206 20007KT 6SM RA SCT040 OVC090
      TEMPO 2106/2107 27012G20KT 5SM TSRA BKN040CB
     FM210800 27008KT 6SM BR BKN040
     FM211300 28015G25KT P6SM SCT050
     FM220000 24008KT P6SM SCT100=

USA.gov is the U.S. government's official web portal to all federal, state and local government web resources and services.